sensor_id;sensor_type;location;lat;lon;timestamp;P1;durP1;ratioP1;P2;durP2;ratioP2
83842;SDS011;73869;52.336;21.182;2023-11-18T00:01:03;4.80;;;4.30;;
83842;SDS011;73869;52.336;21.182;2023-11-18T00:03:37;5.63;;;5.13;;
83842;SDS011;73869;52.336;21.182;2023-11-18T00:06:17;5.20;;;4.70;;
83842;SDS011;73869;52.336;21.182;2023-11-18T00:08:44;6.07;;;5.57;;
83842;SDS011;73869;52.336;21.182;2023-11-18T00:11:11;5.82;;;5.25;;
83842;SDS011;73869;52.336;21.182;2023-11-18T00:13:49;5.03;;;4.60;;
83842;SDS011;73869;52.336;21.182;2023-11-18T00:16:16;5.15;;;4.72;;
83842;SDS011;73869;52.336;21.182;2023-11-18T00:18:43;5.20;;;4.45;;
83842;SDS011;73869;52.336;21.182;2023-11-18T00:21:10;5.25;;;4.75;;
83842;SDS011;73869;52.336;21.182;2023-11-18T00:23:38;4.70;;;4.30;;
83842;SDS011;73869;52.336;21.182;2023-11-18T00:26:05;5.45;;;4.55;;
83842;SDS011;73869;52.336;21.182;2023-11-18T00:28:33;4.95;;;4.30;;
83842;SDS011;73869;52.336;21.182;2023-11-18T00:31:00;5.88;;;4.35;;
83842;SDS011;73869;52.336;21.182;2023-11-18T00:33:29;4.53;;;3.75;;
83842;SDS011;73869;52.336;21.182;2023-11-18T00:35:56;4.70;;;4.20;;
83842;SDS011;73869;52.336;21.182;2023-11-18T00:38:23;4.68;;;4.20;;
83842;SDS011;73869;52.336;21.182;2023-11-18T00:40:51;4.88;;;4.35;;
83842;SDS011;73869;52.336;21.182;2023-11-18T00:43:18;4.30;;;3.90;;
83842;SDS011;73869;52.336;21.182;2023-11-18T00:45:44;5.50;;;4.78;;
83842;SDS011;73869;52.336;21.182;2023-11-18T00:48:12;5.22;;;4.72;;
83842;SDS011;73869;52.336;21.182;2023-11-18T00:50:39;4.88;;;3.90;;
83842;SDS011;73869;52.336;21.182;2023-11-18T00:53:06;4.05;;;3.65;;
83842;SDS011;73869;52.336;21.182;2023-11-18T00:55:33;4.47;;;4.07;;
83842;SDS011;73869;52.336;21.182;2023-11-18T00:58:01;4.55;;;4.07;;
83842;SDS011;73869;52.336;21.182;2023-11-18T01:00:28;5.47;;;4.28;;
83842;SDS011;73869;52.336;21.182;2023-11-18T01:02:55;4.30;;;3.90;;
83842;SDS011;73869;52.336;21.182;2023-11-18T01:05:22;4.38;;;3.97;;
83842;SDS011;73869;52.336;21.182;2023-11-18T01:07:49;4.03;;;3.63;;
83842;SDS011;73869;52.336;21.182;2023-11-18T01:10:16;3.83;;;3.45;;
83842;SDS011;73869;52.336;21.182;2023-11-18T01:12:44;4.07;;;3.67;;
83842;SDS011;73869;52.336;21.182;2023-11-18T01:15:12;4.38;;;3.97;;
83842;SDS011;73869;52.336;21.182;2023-11-18T01:17:42;4.32;;;3.92;;
83842;SDS011;73869;52.336;21.182;2023-11-18T01:20:10;3.80;;;3.40;;
83842;SDS011;73869;52.336;21.182;2023-11-18T01:22:38;4.22;;;3.83;;
83842;SDS011;73869;52.336;21.182;2023-11-18T01:25:07;5.05;;;4.50;;
83842;SDS011;73869;52.336;21.182;2023-11-18T01:27:35;5.40;;;4.90;;
83842;SDS011;73869;52.336;21.182;2023-11-18T01:32:29;6.72;;;5.63;;
83842;SDS011;73869;52.336;21.182;2023-11-18T01:34:56;5.70;;;5.20;;
83842;SDS011;73869;52.336;21.182;2023-11-18T01:37:23;7.65;;;6.10;;
83842;SDS011;73869;52.336;21.182;2023-11-18T01:39:50;6.10;;;5.57;;
83842;SDS011;73869;52.336;21.182;2023-11-18T01:42:16;5.80;;;4.90;;
83842;SDS011;73869;52.336;21.182;2023-11-18T01:44:43;6.05;;;5.45;;
83842;SDS011;73869;52.336;21.182;2023-11-18T01:47:10;6.43;;;5.57;;
83842;SDS011;73869;52.336;21.182;2023-11-18T01:49:39;4.72;;;4.30;;
83842;SDS011;73869;52.336;21.182;2023-11-18T01:52:08;4.82;;;4.32;;
83842;SDS011;73869;52.336;21.182;2023-11-18T01:54:37;5.32;;;3.95;;
83842;SDS011;73869;52.336;21.182;2023-11-18T01:57:05;4.35;;;3.95;;
83842;SDS011;73869;52.336;21.182;2023-11-18T01:59:34;3.97;;;3.58;;
83842;SDS011;73869;52.336;21.182;2023-11-18T02:02:03;5.70;;;4.20;;
83842;SDS011;73869;52.336;21.182;2023-11-18T02:04:30;4.45;;;3.92;;
83842;SDS011;73869;52.336;21.182;2023-11-18T02:06:59;4.50;;;3.58;;
83842;SDS011;73869;52.336;21.182;2023-11-18T02:09:29;4.20;;;3.80;;
83842;SDS011;73869;52.336;21.182;2023-11-18T02:11:57;4.40;;;3.90;;
83842;SDS011;73869;52.336;21.182;2023-11-18T02:14:31;4.43;;;3.42;;
83842;SDS011;73869;52.336;21.182;2023-11-18T02:17:02;5.10;;;4.10;;
83842;SDS011;73869;52.336;21.182;2023-11-18T02:19:30;8.15;;;5.10;;
83842;SDS011;73869;52.336;21.182;2023-11-18T02:22:01;4.45;;;3.72;;
83842;SDS011;73869;52.336;21.182;2023-11-18T02:24:31;6.75;;;4.43;;
83842;SDS011;73869;52.336;21.182;2023-11-18T02:27:03;5.93;;;4.88;;
83842;SDS011;73869;52.336;21.182;2023-11-18T02:29:32;6.85;;;4.60;;
83842;SDS011;73869;52.336;21.182;2023-11-18T02:32:03;7.15;;;5.30;;
83842;SDS011;73869;52.336;21.182;2023-11-18T02:34:39;5.03;;;4.53;;
83842;SDS011;73869;52.336;21.182;2023-11-18T02:37:13;6.43;;;4.45;;
83842;SDS011;73869;52.336;21.182;2023-11-18T02:39:43;4.90;;;3.63;;
83842;SDS011;73869;52.336;21.182;2023-11-18T02:42:14;3.72;;;3.10;;
83842;SDS011;73869;52.336;21.182;2023-11-18T02:44:41;3.50;;;2.92;;
83842;SDS011;73869;52.336;21.182;2023-11-18T02:47:10;4.18;;;3.78;;
83842;SDS011;73869;52.336;21.182;2023-11-18T02:49:37;4.30;;;3.90;;
83842;SDS011;73869;52.336;21.182;2023-11-18T02:52:04;4.70;;;4.10;;
83842;SDS011;73869;52.336;21.182;2023-11-18T02:54:31;4.53;;;3.78;;
83842;SDS011;73869;52.336;21.182;2023-11-18T02:56:58;4.43;;;4.03;;
83842;SDS011;73869;52.336;21.182;2023-11-18T02:59:26;4.75;;;4.35;;
83842;SDS011;73869;52.336;21.182;2023-11-18T03:01:55;4.50;;;3.10;;
83842;SDS011;73869;52.336;21.182;2023-11-18T03:04:22;5.70;;;4.57;;
83842;SDS011;73869;52.336;21.182;2023-11-18T03:06:50;13.57;;;11.07;;
83842;SDS011;73869;52.336;21.182;2023-11-18T03:09:17;13.13;;;11.55;;
83842;SDS011;73869;52.336;21.182;2023-11-18T03:11:45;12.63;;;10.95;;
83842;SDS011;73869;52.336;21.182;2023-11-18T03:14:12;10.88;;;9.77;;
83842;SDS011;73869;52.336;21.182;2023-11-18T03:16:40;8.20;;;7.38;;
83842;SDS011;73869;52.336;21.182;2023-11-18T03:19:08;6.20;;;5.63;;
83842;SDS011;73869;52.336;21.182;2023-11-18T03:21:35;5.95;;;5.45;;
83842;SDS011;73869;52.336;21.182;2023-11-18T03:24:04;5.85;;;5.32;;
83842;SDS011;73869;52.336;21.182;2023-11-18T03:26:32;5.00;;;4.60;;
83842;SDS011;73869;52.336;21.182;2023-11-18T03:28:58;5.30;;;4.80;;
83842;SDS011;73869;52.336;21.182;2023-11-18T03:31:25;4.60;;;4.20;;
83842;SDS011;73869;52.336;21.182;2023-11-18T03:33:55;3.58;;;3.28;;
83842;SDS011;73869;52.336;21.182;2023-11-18T03:36:22;3.63;;;3.15;;
83842;SDS011;73869;52.336;21.182;2023-11-18T03:38:49;2.95;;;2.65;;
83842;SDS011;73869;52.336;21.182;2023-11-18T03:41:16;3.15;;;2.65;;
83842;SDS011;73869;52.336;21.182;2023-11-18T03:43:43;2.63;;;2.42;;
83842;SDS011;73869;52.336;21.182;2023-11-18T03:46:10;2.60;;;2.40;;
83842;SDS011;73869;52.336;21.182;2023-11-18T03:48:37;2.47;;;2.28;;
83842;SDS011;73869;52.336;21.182;2023-11-18T03:51:05;2.70;;;2.50;;
83842;SDS011;73869;52.336;21.182;2023-11-18T03:53:32;2.20;;;2.00;;
83842;SDS011;73869;52.336;21.182;2023-11-18T03:56:00;2.50;;;2.30;;
83842;SDS011;73869;52.336;21.182;2023-11-18T03:58:27;2.38;;;2.17;;
83842;SDS011;73869;52.336;21.182;2023-11-18T04:00:54;2.20;;;2.00;;
83842;SDS011;73869;52.336;21.182;2023-11-18T04:03:22;1.95;;;1.80;;
83842;SDS011;73869;52.336;21.182;2023-11-18T04:05:49;2.03;;;1.83;;
83842;SDS011;73869;52.336;21.182;2023-11-18T04:08:17;2.33;;;2.13;;
83842;SDS011;73869;52.336;21.182;2023-11-18T04:10:44;1.95;;;1.85;;
83842;SDS011;73869;52.336;21.182;2023-11-18T04:13:11;2.35;;;2.15;;
83842;SDS011;73869;52.336;21.182;2023-11-18T04:15:38;2.30;;;2.10;;
83842;SDS011;73869;52.336;21.182;2023-11-18T04:18:05;2.13;;;2.00;;
83842;SDS011;73869;52.336;21.182;2023-11-18T04:20:32;2.38;;;2.17;;
83842;SDS011;73869;52.336;21.182;2023-11-18T04:22:58;2.50;;;2.30;;
83842;SDS011;73869;52.336;21.182;2023-11-18T04:25:27;1.95;;;1.85;;
83842;SDS011;73869;52.336;21.182;2023-11-18T04:27:54;2.20;;;2.00;;
83842;SDS011;73869;52.336;21.182;2023-11-18T04:30:21;2.20;;;1.70;;
83842;SDS011;73869;52.336;21.182;2023-11-18T04:32:47;2.13;;;1.92;;
83842;SDS011;73869;52.336;21.182;2023-11-18T04:35:17;2.30;;;2.10;;
83842;SDS011;73869;52.336;21.182;2023-11-18T04:37:44;2.40;;;2.20;;
83842;SDS011;73869;52.336;21.182;2023-11-18T04:40:11;2.28;;;2.08;;
83842;SDS011;73869;52.336;21.182;2023-11-18T04:42:41;2.28;;;2.05;;
83842;SDS011;73869;52.336;21.182;2023-11-18T04:45:10;2.53;;;2.33;;
83842;SDS011;73869;52.336;21.182;2023-11-18T04:47:39;2.90;;;2.63;;
83842;SDS011;73869;52.336;21.182;2023-11-18T04:50:08;2.25;;;2.05;;
83842;SDS011;73869;52.336;21.182;2023-11-18T04:52:36;2.58;;;2.30;;
83842;SDS011;73869;52.336;21.182;2023-11-18T04:55:03;2.10;;;2.00;;
83842;SDS011;73869;52.336;21.182;2023-11-18T04:57:31;2.30;;;2.10;;
83842;SDS011;73869;52.336;21.182;2023-11-18T05:05:02;2.78;;;2.15;;
83842;SDS011;73869;52.336;21.182;2023-11-18T05:07:30;2.17;;;2.05;;
83842;SDS011;73869;52.336;21.182;2023-11-18T05:09:57;2.00;;;1.90;;
83842;SDS011;73869;52.336;21.182;2023-11-18T05:12:23;2.30;;;2.10;;
83842;SDS011;73869;52.336;21.182;2023-11-18T05:14:50;2.40;;;2.20;;
83842;SDS011;73869;52.336;21.182;2023-11-18T05:17:18;2.13;;;1.92;;
83842;SDS011;73869;52.336;21.182;2023-11-18T05:19:45;2.38;;;2.17;;
83842;SDS011;73869;52.336;21.182;2023-11-18T05:22:12;2.15;;;1.95;;
83842;SDS011;73869;52.336;21.182;2023-11-18T05:24:39;2.25;;;2.00;;
83842;SDS011;73869;52.336;21.182;2023-11-18T05:27:06;2.00;;;1.90;;
83842;SDS011;73869;52.336;21.182;2023-11-18T05:29:32;3.53;;;2.90;;
83842;SDS011;73869;52.336;21.182;2023-11-18T05:32:00;3.42;;;3.13;;
83842;SDS011;73869;52.336;21.182;2023-11-18T05:34:28;3.53;;;3.22;;
83842;SDS011;73869;52.336;21.182;2023-11-18T05:36:54;2.92;;;2.72;;
83842;SDS011;73869;52.336;21.182;2023-11-18T05:39:22;2.90;;;2.60;;
83842;SDS011;73869;52.336;21.182;2023-11-18T05:41:53;2.50;;;2.30;;
83842;SDS011;73869;52.336;21.182;2023-11-18T05:44:21;2.90;;;2.70;;
83842;SDS011;73869;52.336;21.182;2023-11-18T05:46:55;2.55;;;2.35;;
83842;SDS011;73869;52.336;21.182;2023-11-18T05:49:23;2.22;;;2.03;;
83842;SDS011;73869;52.336;21.182;2023-11-18T05:51:51;2.83;;;2.63;;
83842;SDS011;73869;52.336;21.182;2023-11-18T05:54:18;2.40;;;2.20;;
83842;SDS011;73869;52.336;21.182;2023-11-18T05:56:45;2.50;;;2.30;;
83842;SDS011;73869;52.336;21.182;2023-11-18T05:59:12;2.60;;;2.40;;
83842;SDS011;73869;52.336;21.182;2023-11-18T06:01:39;2.15;;;1.98;;
83842;SDS011;73869;52.336;21.182;2023-11-18T06:04:06;2.47;;;2.28;;
83842;SDS011;73869;52.336;21.182;2023-11-18T06:06:33;2.05;;;1.90;;
83842;SDS011;73869;52.336;21.182;2023-11-18T06:09:03;2.50;;;2.30;;
83842;SDS011;73869;52.336;21.182;2023-11-18T06:11:34;2.28;;;2.13;;
83842;SDS011;73869;52.336;21.182;2023-11-18T06:14:02;2.33;;;2.13;;
83842;SDS011;73869;52.336;21.182;2023-11-18T06:16:29;2.20;;;2.00;;
83842;SDS011;73869;52.336;21.182;2023-11-18T06:18:57;2.50;;;2.30;;
83842;SDS011;73869;52.336;21.182;2023-11-18T06:21:24;2.30;;;2.10;;
83842;SDS011;73869;52.336;21.182;2023-11-18T06:23:55;2.05;;;1.95;;
83842;SDS011;73869;52.336;21.182;2023-11-18T06:26:24;3.03;;;2.15;;
83842;SDS011;73869;52.336;21.182;2023-11-18T06:28:52;2.20;;;2.03;;
83842;SDS011;73869;52.336;21.182;2023-11-18T06:31:20;2.30;;;2.10;;
83842;SDS011;73869;52.336;21.182;2023-11-18T06:33:49;2.42;;;2.22;;
83842;SDS011;73869;52.336;21.182;2023-11-18T06:36:16;2.13;;;1.98;;
83842;SDS011;73869;52.336;21.182;2023-11-18T06:38:44;2.47;;;2.28;;
83842;SDS011;73869;52.336;21.182;2023-11-18T06:41:11;2.03;;;1.92;;
83842;SDS011;73869;52.336;21.182;2023-11-18T06:43:40;2.55;;;2.35;;
83842;SDS011;73869;52.336;21.182;2023-11-18T06:46:22;2.40;;;2.20;;
83842;SDS011;73869;52.336;21.182;2023-11-18T06:48:51;3.20;;;2.90;;
83842;SDS011;73869;52.336;21.182;2023-11-18T06:51:19;3.35;;;3.05;;
83842;SDS011;73869;52.336;21.182;2023-11-18T06:53:48;2.50;;;2.30;;
83842;SDS011;73869;52.336;21.182;2023-11-18T06:56:16;2.80;;;2.60;;
83842;SDS011;73869;52.336;21.182;2023-11-18T06:58:44;2.75;;;2.55;;
83842;SDS011;73869;52.336;21.182;2023-11-18T07:01:12;2.63;;;2.42;;
83842;SDS011;73869;52.336;21.182;2023-11-18T07:03:40;2.60;;;2.40;;
83842;SDS011;73869;52.336;21.182;2023-11-18T07:06:08;2.58;;;2.38;;
83842;SDS011;73869;52.336;21.182;2023-11-18T07:08:35;2.33;;;2.13;;
83842;SDS011;73869;52.336;21.182;2023-11-18T07:11:02;2.97;;;2.67;;
83842;SDS011;73869;52.336;21.182;2023-11-18T07:13:31;4.28;;;3.88;;
83842;SDS011;73869;52.336;21.182;2023-11-18T07:16:00;4.95;;;4.45;;
83842;SDS011;73869;52.336;21.182;2023-11-18T07:18:28;5.82;;;4.60;;
83842;SDS011;73869;52.336;21.182;2023-11-18T07:20:56;5.43;;;4.70;;
83842;SDS011;73869;52.336;21.182;2023-11-18T07:23:24;5.22;;;4.72;;
83842;SDS011;73869;52.336;21.182;2023-11-18T07:25:51;4.82;;;4.32;;
83842;SDS011;73869;52.336;21.182;2023-11-18T07:28:18;4.88;;;4.38;;
83842;SDS011;73869;52.336;21.182;2023-11-18T07:30:45;3.80;;;3.50;;
83842;SDS011;73869;52.336;21.182;2023-11-18T07:33:14;3.40;;;3.10;;
83842;SDS011;73869;52.336;21.182;2023-11-18T07:35:42;3.20;;;2.90;;
83842;SDS011;73869;52.336;21.182;2023-11-18T07:38:09;2.83;;;2.63;;
83842;SDS011;73869;52.336;21.182;2023-11-18T07:40:35;2.45;;;2.15;;
83842;SDS011;73869;52.336;21.182;2023-11-18T07:43:07;2.95;;;2.65;;
83842;SDS011;73869;52.336;21.182;2023-11-18T07:45:35;3.13;;;2.83;;
83842;SDS011;73869;52.336;21.182;2023-11-18T07:48:04;3.35;;;3.05;;
83842;SDS011;73869;52.336;21.182;2023-11-18T07:50:34;4.18;;;3.85;;
83842;SDS011;73869;52.336;21.182;2023-11-18T07:53:01;4.30;;;3.90;;
83842;SDS011;73869;52.336;21.182;2023-11-18T07:55:28;4.25;;;3.85;;
83842;SDS011;73869;52.336;21.182;2023-11-18T07:57:55;4.40;;;4.00;;
83842;SDS011;73869;52.336;21.182;2023-11-18T08:00:22;3.40;;;3.10;;
83842;SDS011;73869;52.336;21.182;2023-11-18T08:02:49;3.47;;;3.17;;
83842;SDS011;73869;52.336;21.182;2023-11-18T08:05:17;3.80;;;3.50;;
83842;SDS011;73869;52.336;21.182;2023-11-18T08:07:45;3.60;;;3.30;;
83842;SDS011;73869;52.336;21.182;2023-11-18T08:27:19;3.00;;;2.70;;
83842;SDS011;73869;52.336;21.182;2023-11-18T08:29:46;2.70;;;2.50;;
83842;SDS011;73869;52.336;21.182;2023-11-18T08:32:13;2.67;;;2.47;;
83842;SDS011;73869;52.336;21.182;2023-11-18T08:34:43;2.42;;;2.22;;
83842;SDS011;73869;52.336;21.182;2023-11-18T08:37:10;2.47;;;2.22;;
83842;SDS011;73869;52.336;21.182;2023-11-18T08:39:36;2.42;;;2.22;;
83842;SDS011;73869;52.336;21.182;2023-11-18T08:42:03;2.58;;;2.38;;
83842;SDS011;73869;52.336;21.182;2023-11-18T08:44:36;2.92;;;2.70;;
83842;SDS011;73869;52.336;21.182;2023-11-18T08:47:04;2.28;;;2.08;;
83842;SDS011;73869;52.336;21.182;2023-11-18T08:49:33;2.33;;;2.13;;
83842;SDS011;73869;52.336;21.182;2023-11-18T08:52:05;3.15;;;2.30;;
83842;SDS011;73869;52.336;21.182;2023-11-18T08:54:35;2.53;;;2.30;;
83842;SDS011;73869;52.336;21.182;2023-11-18T08:57:04;2.67;;;2.35;;
83842;SDS011;73869;52.336;21.182;2023-11-18T08:59:46;2.20;;;2.00;;
83842;SDS011;73869;52.336;21.182;2023-11-18T09:02:14;2.85;;;2.63;;
83842;SDS011;73869;52.336;21.182;2023-11-18T09:04:48;2.50;;;2.30;;
83842;SDS011;73869;52.336;21.182;2023-11-18T09:07:15;2.53;;;2.33;;
83842;SDS011;73869;52.336;21.182;2023-11-18T09:09:43;2.50;;;2.30;;
83842;SDS011;73869;52.336;21.182;2023-11-18T09:12:11;2.60;;;2.40;;
83842;SDS011;73869;52.336;21.182;2023-11-18T09:14:41;2.55;;;2.30;;
83842;SDS011;73869;52.336;21.182;2023-11-18T09:17:09;2.60;;;2.40;;
83842;SDS011;73869;52.336;21.182;2023-11-18T09:19:36;2.70;;;2.50;;
83842;SDS011;73869;52.336;21.182;2023-11-18T09:22:03;2.40;;;2.20;;
83842;SDS011;73869;52.336;21.182;2023-11-18T09:24:30;2.65;;;2.45;;
83842;SDS011;73869;52.336;21.182;2023-11-18T09:26:58;2.72;;;2.53;;
83842;SDS011;73869;52.336;21.182;2023-11-18T09:29:25;3.08;;;2.78;;
83842;SDS011;73869;52.336;21.182;2023-11-18T09:31:53;2.97;;;2.67;;
83842;SDS011;73869;52.336;21.182;2023-11-18T09:34:25;2.92;;;2.60;;
83842;SDS011;73869;52.336;21.182;2023-11-18T09:36:58;2.63;;;2.42;;
83842;SDS011;73869;52.336;21.182;2023-11-18T09:39:25;2.97;;;2.65;;
83842;SDS011;73869;52.336;21.182;2023-11-18T09:42:04;2.47;;;2.20;;
83842;SDS011;73869;52.336;21.182;2023-11-18T09:44:35;2.55;;;2.35;;
83842;SDS011;73869;52.336;21.182;2023-11-18T09:47:05;2.95;;;2.65;;
83842;SDS011;73869;52.336;21.182;2023-11-18T09:49:39;2.60;;;2.40;;
83842;SDS011;73869;52.336;21.182;2023-11-18T09:52:15;2.53;;;2.33;;
83842;SDS011;73869;52.336;21.182;2023-11-18T09:54:45;2.50;;;2.30;;
83842;SDS011;73869;52.336;21.182;2023-11-18T09:57:23;2.72;;;2.53;;
83842;SDS011;73869;52.336;21.182;2023-11-18T09:59:58;2.67;;;2.47;;
83842;SDS011;73869;52.336;21.182;2023-11-18T10:02:38;2.80;;;2.60;;
83842;SDS011;73869;52.336;21.182;2023-11-18T10:05:07;3.03;;;2.58;;
83842;SDS011;73869;52.336;21.182;2023-11-18T10:07:40;2.80;;;2.58;;
83842;SDS011;73869;52.336;21.182;2023-11-18T10:10:31;2.97;;;2.67;;
83842;SDS011;73869;52.336;21.182;2023-11-18T10:13:01;3.08;;;2.78;;
83842;SDS011;73869;52.336;21.182;2023-11-18T10:18:00;3.05;;;2.75;;
83842;SDS011;73869;52.336;21.182;2023-11-18T10:20:47;3.20;;;2.90;;
83842;SDS011;73869;52.336;21.182;2023-11-18T10:23:17;3.08;;;2.78;;
83842;SDS011;73869;52.336;21.182;2023-11-18T10:25:46;3.38;;;3.08;;
83842;SDS011;73869;52.336;21.182;2023-11-18T10:28:24;3.38;;;3.08;;
83842;SDS011;73869;52.336;21.182;2023-11-18T10:30:52;3.25;;;2.95;;
83842;SDS011;73869;52.336;21.182;2023-11-18T10:33:20;3.22;;;2.92;;
83842;SDS011;73869;52.336;21.182;2023-11-18T10:35:52;3.20;;;2.90;;
83842;SDS011;73869;52.336;21.182;2023-11-18T10:38:21;3.13;;;2.83;;
83842;SDS011;73869;52.336;21.182;2023-11-18T10:40:52;3.22;;;2.85;;
83842;SDS011;73869;52.336;21.182;2023-11-18T10:43:20;3.53;;;3.22;;
83842;SDS011;73869;52.336;21.182;2023-11-18T10:45:50;3.10;;;2.80;;
83842;SDS011;73869;52.336;21.182;2023-11-18T10:48:19;4.03;;;3.63;;
83842;SDS011;73869;52.336;21.182;2023-11-18T10:50:47;4.22;;;3.83;;
83842;SDS011;73869;52.336;21.182;2023-11-18T10:53:16;3.97;;;3.58;;
83842;SDS011;73869;52.336;21.182;2023-11-18T10:55:44;3.75;;;3.28;;
83842;SDS011;73869;52.336;21.182;2023-11-18T10:58:13;3.88;;;3.47;;
83842;SDS011;73869;52.336;21.182;2023-11-18T11:00:45;3.78;;;3.38;;
83842;SDS011;73869;52.336;21.182;2023-11-18T11:03:17;3.53;;;3.22;;
83842;SDS011;73869;52.336;21.182;2023-11-18T11:05:43;3.72;;;3.40;;
83842;SDS011;73869;52.336;21.182;2023-11-18T11:08:11;3.75;;;3.45;;
83842;SDS011;73869;52.336;21.182;2023-11-18T11:10:46;4.10;;;3.50;;
83842;SDS011;73869;52.336;21.182;2023-11-18T11:13:32;4.72;;;4.30;;
83842;SDS011;73869;52.336;21.182;2023-11-18T11:16:06;4.88;;;4.45;;
83842;SDS011;73869;52.336;21.182;2023-11-18T11:18:39;6.00;;;4.90;;
83842;SDS011;73869;52.336;21.182;2023-11-18T11:21:13;6.18;;;5.57;;
83842;SDS011;73869;52.336;21.182;2023-11-18T11:23:48;6.55;;;5.45;;
83842;SDS011;73869;52.336;21.182;2023-11-18T11:26:26;5.35;;;4.85;;
83842;SDS011;73869;52.336;21.182;2023-11-18T11:29:07;5.25;;;4.55;;
83842;SDS011;73869;52.336;21.182;2023-11-18T11:31:51;4.32;;;3.92;;
83842;SDS011;73869;52.336;21.182;2023-11-18T11:34:29;4.38;;;3.75;;
83842;SDS011;73869;52.336;21.182;2023-11-18T11:36:59;4.10;;;3.70;;
83842;SDS011;73869;52.336;21.182;2023-11-18T11:39:28;5.22;;;4.13;;
83842;SDS011;73869;52.336;21.182;2023-11-18T11:42:03;5.25;;;4.75;;
83842;SDS011;73869;52.336;21.182;2023-11-18T11:44:34;4.70;;;4.30;;
83842;SDS011;73869;52.336;21.182;2023-11-18T11:47:07;4.80;;;4.40;;
83842;SDS011;73869;52.336;21.182;2023-11-18T11:49:40;5.72;;;5.22;;
83842;SDS011;73869;52.336;21.182;2023-11-18T11:52:15;7.22;;;6.53;;
83842;SDS011;73869;52.336;21.182;2023-11-18T11:54:54;7.30;;;6.60;;
83842;SDS011;73869;52.336;21.182;2023-11-18T11:57:29;7.32;;;5.75;;
83842;SDS011;73869;52.336;21.182;2023-11-18T11:59:56;5.32;;;4.63;;
83842;SDS011;73869;52.336;21.182;2023-11-18T12:02:23;4.45;;;4.05;;
83842;SDS011;73869;52.336;21.182;2023-11-18T12:04:54;4.72;;;4.28;;
83842;SDS011;73869;52.336;21.182;2023-11-18T12:07:24;4.53;;;4.13;;
83842;SDS011;73869;52.336;21.182;2023-11-18T12:09:55;4.50;;;4.10;;
83842;SDS011;73869;52.336;21.182;2023-11-18T12:12:23;5.00;;;4.50;;
83842;SDS011;73869;52.336;21.182;2023-11-18T12:14:54;5.70;;;4.80;;
83842;SDS011;73869;52.336;21.182;2023-11-18T12:20:39;5.20;;;4.70;;
83842;SDS011;73869;52.336;21.182;2023-11-18T12:23:12;5.70;;;5.10;;
83842;SDS011;73869;52.336;21.182;2023-11-18T12:25:40;4.82;;;4.43;;
83842;SDS011;73869;52.336;21.182;2023-11-18T12:28:08;4.85;;;4.45;;
83842;SDS011;73869;52.336;21.182;2023-11-18T12:30:41;4.35;;;3.90;;
83842;SDS011;73869;52.336;21.182;2023-11-18T12:33:21;5.15;;;4.20;;
83842;SDS011;73869;52.336;21.182;2023-11-18T12:41:54;4.43;;;3.95;;
83842;SDS011;73869;52.336;21.182;2023-11-18T12:44:33;4.13;;;3.72;;
83842;SDS011;73869;52.336;21.182;2023-11-18T12:47:08;4.20;;;3.80;;
83842;SDS011;73869;52.336;21.182;2023-11-18T12:49:43;4.00;;;3.70;;
83842;SDS011;73869;52.336;21.182;2023-11-18T12:52:15;3.90;;;3.60;;
83842;SDS011;73869;52.336;21.182;2023-11-18T12:54:44;4.25;;;3.85;;
83842;SDS011;73869;52.336;21.182;2023-11-18T12:57:16;4.38;;;3.97;;
83842;SDS011;73869;52.336;21.182;2023-11-18T12:59:43;4.25;;;3.85;;
83842;SDS011;73869;52.336;21.182;2023-11-18T13:02:12;4.70;;;4.30;;
83842;SDS011;73869;52.336;21.182;2023-11-18T13:04:44;4.15;;;3.72;;
83842;SDS011;73869;52.336;21.182;2023-11-18T13:07:13;4.85;;;4.00;;
83842;SDS011;73869;52.336;21.182;2023-11-18T13:09:40;4.50;;;4.10;;
83842;SDS011;73869;52.336;21.182;2023-11-18T13:12:09;4.40;;;4.00;;
83842;SDS011;73869;52.336;21.182;2023-11-18T13:14:40;4.68;;;4.18;;
83842;SDS011;73869;52.336;21.182;2023-11-18T13:17:09;5.20;;;4.70;;
83842;SDS011;73869;52.336;21.182;2023-11-18T13:19:43;4.82;;;4.32;;
83842;SDS011;73869;52.336;21.182;2023-11-18T13:22:12;4.70;;;4.20;;
83842;SDS011;73869;52.336;21.182;2023-11-18T13:24:40;5.15;;;4.40;;
83842;SDS011;73869;52.336;21.182;2023-11-18T13:27:09;5.15;;;4.70;;
83842;SDS011;73869;52.336;21.182;2023-11-18T13:29:44;5.53;;;5.03;;
83842;SDS011;73869;52.336;21.182;2023-11-18T13:32:14;5.25;;;4.75;;
83842;SDS011;73869;52.336;21.182;2023-11-18T13:34:52;5.70;;;5.13;;
83842;SDS011;73869;52.336;21.182;2023-11-18T13:37:20;5.75;;;5.25;;
83842;SDS011;73869;52.336;21.182;2023-11-18T13:39:52;5.68;;;5.18;;
83842;SDS011;73869;52.336;21.182;2023-11-18T13:42:20;5.20;;;4.70;;
83842;SDS011;73869;52.336;21.182;2023-11-18T13:44:48;17.95;;;5.30;;
83842;SDS011;73869;52.336;21.182;2023-11-18T13:47:16;7.80;;;5.40;;
83842;SDS011;73869;52.336;21.182;2023-11-18T13:49:44;6.25;;;4.60;;
83842;SDS011;73869;52.336;21.182;2023-11-18T13:52:13;5.18;;;4.78;;
83842;SDS011;73869;52.336;21.182;2023-11-18T13:54:42;4.75;;;4.35;;
83842;SDS011;73869;52.336;21.182;2023-11-18T13:57:10;4.97;;;4.47;;
83842;SDS011;73869;52.336;21.182;2023-11-18T13:59:38;4.70;;;4.22;;
83842;SDS011;73869;52.336;21.182;2023-11-18T14:02:05;5.15;;;4.65;;
83842;SDS011;73869;52.336;21.182;2023-11-18T14:04:33;4.45;;;4.05;;
83842;SDS011;73869;52.336;21.182;2023-11-18T14:07:00;5.05;;;4.55;;
83842;SDS011;73869;52.336;21.182;2023-11-18T14:09:31;4.85;;;4.30;;
83842;SDS011;73869;52.336;21.182;2023-11-18T14:12:05;4.63;;;4.22;;
83842;SDS011;73869;52.336;21.182;2023-11-18T14:14:32;5.10;;;4.60;;
83842;SDS011;73869;52.336;21.182;2023-11-18T14:16:59;5.95;;;5.35;;
83842;SDS011;73869;52.336;21.182;2023-11-18T14:19:29;6.88;;;6.28;;
83842;SDS011;73869;52.336;21.182;2023-11-18T14:21:56;5.63;;;5.13;;
83842;SDS011;73869;52.336;21.182;2023-11-18T14:24:23;5.78;;;5.22;;
83842;SDS011;73869;52.336;21.182;2023-11-18T14:26:54;6.20;;;5.38;;
83842;SDS011;73869;52.336;21.182;2023-11-18T14:29:21;5.60;;;5.05;;
83842;SDS011;73869;52.336;21.182;2023-11-18T14:31:48;5.40;;;4.85;;
83842;SDS011;73869;52.336;21.182;2023-11-18T14:34:15;5.88;;;5.05;;
83842;SDS011;73869;52.336;21.182;2023-11-18T14:36:43;5.32;;;4.82;;
83842;SDS011;73869;52.336;21.182;2023-11-18T14:39:10;5.30;;;4.80;;
83842;SDS011;73869;52.336;21.182;2023-11-18T14:41:38;5.88;;;5.32;;
83842;SDS011;73869;52.336;21.182;2023-11-18T14:44:07;5.20;;;4.70;;
83842;SDS011;73869;52.336;21.182;2023-11-18T14:46:34;6.22;;;5.45;;
83842;SDS011;73869;52.336;21.182;2023-11-18T14:49:03;5.68;;;5.00;;
83842;SDS011;73869;52.336;21.182;2023-11-18T14:51:31;5.35;;;4.85;;
83842;SDS011;73869;52.336;21.182;2023-11-18T14:53:58;5.75;;;5.25;;
83842;SDS011;73869;52.336;21.182;2023-11-18T14:56:25;6.18;;;5.68;;
83842;SDS011;73869;52.336;21.182;2023-11-18T14:58:51;5.63;;;5.13;;
83842;SDS011;73869;52.336;21.182;2023-11-18T15:01:20;5.90;;;5.40;;
83842;SDS011;73869;52.336;21.182;2023-11-18T15:03:46;6.28;;;5.50;;
83842;SDS011;73869;52.336;21.182;2023-11-18T15:06:23;5.47;;;4.97;;
83842;SDS011;73869;52.336;21.182;2023-11-18T15:08:51;5.75;;;5.25;;
83842;SDS011;73869;52.336;21.182;2023-11-18T15:11:20;5.40;;;4.93;;
83842;SDS011;73869;52.336;21.182;2023-11-18T15:13:48;6.00;;;4.80;;
83842;SDS011;73869;52.336;21.182;2023-11-18T15:16:19;5.43;;;4.93;;
83842;SDS011;73869;52.336;21.182;2023-11-18T15:18:46;6.00;;;5.40;;
83842;SDS011;73869;52.336;21.182;2023-11-18T15:21:15;5.30;;;4.80;;